Time;durP1;ratioP1;P1;durP2;ratioP2;P2;SDS_P1;SDS_P2;PMS_P1;PMS_P2;Temp;Humidity;BMP_temperature;BMP_pressure;BME280_temperature;BME280_humidity;BME280_pressure;Samples;Min_cycle;Max_cycle;Signal;HPM_P1;HPM_P2
2023/03/15 00:02:04;;;;;;;1.35;0.60;;;1.70;99.90;;;;;;5031554;28;20431;-67
2023/03/15 00:04:31;;;;;;;0.60;0.60;;;1.40;99.90;;;;;;5029476;28;20521;-67
2023/03/15 00:06:58;;;;;;;8.00;0.40;;;1.10;99.90;;;;;;5031372;28;20434;-67
2023/03/15 00:09:25;;;;;;;0.10;0.10;;;1.00;99.90;;;;;;5031043;28;20493;-67
2023/03/15 00:11:55;;;;;;;9.25;0.50;;;0.90;99.90;;;;;;5031628;28;20434;-67
2023/03/15 00:14:22;;;;;;;0.20;0.20;;;0.80;99.90;;;;;;5029357;28;20473;-67
2023/03/15 00:16:49;;;;;;;0.40;0.40;;;0.70;99.90;;;;;;5029819;28;20439;-67
2023/03/15 00:19:16;;;;;;;0.40;0.40;;;0.80;99.90;;;;;;5029994;28;20437;-67
2023/03/15 00:21:43;;;;;;;0.60;0.43;;;0.80;99.90;;;;;;5030331;28;20431;-67
2023/03/15 00:24:10;;;;;;;0.20;0.20;;;0.80;99.90;;;;;;5030660;28;20928;-67
2023/03/15 00:26:37;;;;;;;0.15;0.15;;;;;;;;;;5029693;28;20523;-67
2023/03/15 00:29:05;;;;;;;0.22;0.22;;;;;;;;;;5030829;28;20953;-67
2023/03/15 00:31:32;;;;;;;0.40;0.40;;;0.80;99.90;;;;;;5029327;28;20470;-67
2023/03/15 00:33:59;;;;;;;0.28;0.28;;;0.70;99.90;;;;;;5030408;28;20435;-67
2023/03/15 00:36:26;;;;;;;1.30;0.90;;;0.70;99.90;;;;;;5030693;28;20493;-67
2023/03/15 00:38:55;;;;;;;0.60;0.60;;;;;;;;;;5029148;28;20430;-67
2023/03/15 00:41:24;;;;;;;0.17;0.17;;;0.60;99.90;;;;;;5030610;28;20434;-67
2023/03/15 00:43:51;;;;;;;2.30;0.70;;;0.30;99.90;;;;;;5030108;28;20489;-67
2023/03/15 00:46:18;;;;;;;0.40;0.40;;;;;;;;;;5028231;28;20961;-67
2023/03/15 00:48:50;;;;;;;0.70;0.50;;;0.20;99.90;;;;;;5029960;28;20865;-67
2023/03/15 00:51:22;;;;;;;0.30;0.30;;;-0.10;99.90;;;;;;5030541;28;20510;-67
2023/03/15 00:53:52;;;;;;;0.25;0.25;;;-0.30;99.90;;;;;;5029870;28;20434;-67
2023/03/15 00:56:24;;;;;;;0.13;0.13;;;-0.60;99.90;;;;;;5029370;28;20514;-67
2023/03/15 00:58:54;;;;;;;0.20;0.20;;;-0.70;99.90;;;;;;5028716;28;20437;-67
2023/03/15 01:01:27;;;;;;;0.20;0.20;;;-0.70;99.90;;;;;;5030406;28;20481;-67
2023/03/15 01:03:54;;;;;;;0.40;0.40;;;-0.60;99.90;;;;;;5029990;28;20430;-67
2023/03/15 01:06:27;;;;;;;0.15;0.15;;;-0.50;99.90;;;;;;5029365;28;20466;-67
2023/03/15 01:08:55;;;;;;;0.28;0.28;;;-0.30;99.90;;;;;;5028524;28;20496;-67
2023/03/15 01:11:25;;;;;;;0.70;0.70;;;-0.30;99.90;;;;;;5029843;28;20525;-67
2023/03/15 01:13:54;;;;;;;0.20;0.20;;;-0.30;99.90;;;;;;5030002;28;20497;-67
2023/03/15 01:16:21;;;;;;;0.30;0.30;;;-0.40;99.90;;;;;;5030626;28;20441;-67
2023/03/15 01:18:51;;;;;;;0.20;0.20;;;-0.40;99.90;;;;;;5030350;28;20430;-67
2023/03/15 01:21:19;;;;;;;0.30;0.30;;;-0.50;99.90;;;;;;5030344;28;20473;-67
2023/03/15 01:23:46;;;;;;;0.30;0.30;;;-0.70;99.90;;;;;;5027979;28;20957;-67
2023/03/15 01:26:15;;;;;;;0.30;0.30;;;-0.80;99.90;;;;;;5010333;28;20432;-67
2023/03/15 01:28:42;;;;;;;0.20;0.20;;;-0.90;99.90;;;;;;5010689;28;20432;-67
2023/03/15 01:31:17;;;;;;;0.40;0.40;;;-1.10;99.90;;;;;;5010470;28;20536;-67
2023/03/15 01:33:45;;;;;;;0.30;0.30;;;-1.20;99.90;;;;;;5010340;28;20438;-67
2023/03/15 01:36:12;;;;;;;0.10;0.10;;;-1.40;99.90;;;;;;5007438;28;20519;-67
2023/03/15 01:38:39;;;;;;;0.30;0.30;;;-1.50;99.90;;;;;;5029445;28;20435;-67
2023/03/15 01:41:06;;;;;;;0.30;0.30;;;-1.50;99.90;;;;;;5026964;28;20431;-67
2023/03/15 01:43:35;;;;;;;0.20;0.20;;;-1.60;99.90;;;;;;5029288;28;20523;-67
2023/03/15 01:46:18;;;;;;;0.40;0.40;;;-1.60;99.90;;;;;;5026296;28;20453;-67
2023/03/15 01:49:08;;;;;;;0.20;0.20;;;-1.60;99.90;;;;;;5029231;28;20437;-67
2023/03/15 01:51:42;;;;;;;0.20;0.20;;;-1.70;99.90;;;;;;5030207;28;20481;-67
2023/03/15 01:54:14;;;;;;;0.30;0.30;;;-1.80;99.90;;;;;;5029844;28;20799;-68
2023/03/15 01:56:45;;;;;;;0.10;0.10;;;-1.80;99.90;;;;;;5013246;28;20519;-67
2023/03/15 01:59:18;;;;;;;0.20;0.20;;;-1.80;99.90;;;;;;5010523;28;20486;-67
2023/03/15 02:01:49;;;;;;;0.20;0.20;;;-1.80;99.90;;;;;;5009969;28;20560;-67
2023/03/15 02:04:23;;;;;;;0.20;0.20;;;-1.70;99.90;;;;;;5009908;28;20520;-67
2023/03/15 02:06:58;;;;;;;0.35;0.28;;;-1.70;99.90;;;;;;5010148;28;20441;-67
2023/03/15 02:10:08;;;;;;;0.10;0.10;;;-1.70;1.00;;;;;;5019896;28;20427;-67
2023/03/15 02:12:45;;;;;;;0.20;0.20;;;-1.70;1.00;;;;;;5029497;28;20427;-67
2023/03/15 02:15:14;;;;;;;0.30;0.30;;;-1.50;1.00;;;;;;5027958;28;20441;-67
2023/03/15 02:17:43;;;;;;;0.28;0.28;;;-1.40;99.90;;;;;;5030015;28;20437;-67
2023/03/15 02:20:26;;;;;;;0.20;0.20;;;-1.30;1.00;;;;;;5032210;28;20431;-68
2023/03/15 02:23:18;;;;;;;0.20;0.20;;;-1.20;1.00;;;;;;5033777;28;20442;-67
2023/03/15 02:26:02;;;;;;;0.10;0.10;;;-1.20;99.90;;;;;;5029967;28;20932;-67
2023/03/15 02:28:32;;;;;;;0.20;0.20;;;-1.10;1.00;;;;;;5029953;28;20473;-67
2023/03/15 02:30:59;;;;;;;0.20;0.20;;;-1.10;92.60;;;;;;5030561;28;20430;-67
2023/03/15 02:33:31;;;;;;;0.80;0.50;;;-1.20;1.00;;;;;;5028517;28;20488;-67
2023/03/15 02:36:20;;;;;;;0.37;0.37;;;-1.30;1.00;;;;;;5030220;28;20998;-68
2023/03/15 02:38:48;;;;;;;2.00;0.40;;;-1.50;1.00;;;;;;5029092;28;20434;-67
2023/03/15 02:41:23;;;;;;;0.20;0.20;;;-1.50;1.00;;;;;;5029794;28;20423;-67
2023/03/15 02:43:55;;;;;;;0.10;0.10;;;-1.60;99.90;;;;;;5027899;28;20449;-67
2023/03/15 02:46:22;;;;;;;0.10;0.10;;;-1.60;99.90;;;;;;5030346;28;20458;-67
2023/03/15 02:48:52;;;;;;;0.20;0.20;;;-1.60;1.00;;;;;;5030258;28;20458;-68
2023/03/15 02:51:23;;;;;;;0.20;0.20;;;-1.70;1.00;;;;;;5030471;28;20561;-67
2023/03/15 02:53:49;;;;;;;0.20;0.20;;;-1.70;1.00;;;;;;5030233;28;20906;-67
2023/03/15 02:56:16;;;;;;;0.20;0.20;;;-1.80;1.00;;;;;;5030175;28;20453;-68
2023/03/15 02:58:46;;;;;;;1.00;0.28;;;-1.80;1.00;;;;;;5029870;28;20514;-68
2023/03/15 03:01:15;;;;;;;0.13;0.13;;;-1.80;1.00;;;;;;5028421;28;20506;-68
2023/03/15 03:03:44;;;;;;;0.20;0.20;;;-1.70;99.90;;;;;;5032101;28;20438;-67
2023/03/15 03:06:12;;;;;;;3.10;0.40;;;-1.60;99.90;;;;;;5031064;28;20427;-67
2023/03/15 03:08:39;;;;;;;0.20;0.20;;;-1.50;99.90;;;;;;5032695;28;20990;-68
2023/03/15 03:11:06;;;;;;;0.17;0.17;;;-1.50;99.90;;;;;;5032687;28;20522;-68
2023/03/15 03:13:33;;;;;;;0.90;0.28;;;-1.40;1.00;;;;;;5032638;28;20463;-68
2023/03/15 03:15:59;;;;;;;0.60;0.60;;;-1.50;1.00;;;;;;5030220;28;20431;-68
2023/03/15 03:18:28;;;;;;;1.10;0.60;;;-1.50;99.90;;;;;;5032443;28;20437;-68
2023/03/15 03:20:56;;;;;;;0.10;0.10;;;-1.60;99.90;;;;;;5032098;28;20431;-68
2023/03/15 03:23:26;;;;;;;0.20;0.20;;;-1.60;99.90;;;;;;5032221;28;20454;-68
2023/03/15 03:25:54;;;;;;;0.30;0.30;;;-1.60;1.00;;;;;;5030686;28;20476;-68
2023/03/15 03:28:23;;;;;;;0.10;0.10;;;-1.50;1.00;;;;;;5031925;28;20434;-68
2023/03/15 03:30:50;;;;;;;0.10;0.10;;;-1.70;1.00;;;;;;5030655;28;20804;-68
2023/03/15 03:33:18;;;;;;;0.20;0.20;;;-1.70;1.00;;;;;;5032182;28;20503;-68
2023/03/15 03:35:48;;;;;;;0.38;0.30;;;-1.70;1.00;;;;;;5029619;28;20431;-68
2023/03/15 03:38:24;;;;;;;0.30;0.30;;;-1.70;1.00;;;;;;5030881;28;20460;-68
2023/03/15 03:40:54;;;;;;;0.10;0.10;;;-1.60;1.00;;;;;;5030236;28;20517;-68
2023/03/15 03:43:21;;;;;;;0.28;0.28;;;-1.50;1.00;;;;;;5030724;28;20522;-68
2023/03/15 03:45:47;;;;;;;0.40;0.40;;;-1.50;1.00;;;;;;5030227;28;20427;-68
2023/03/15 03:48:14;;;;;;;0.20;0.20;;;-1.40;1.00;;;;;;5030101;28;20582;-68
2023/03/15 03:50:41;;;;;;;0.20;0.20;;;-1.40;1.00;;;;;;5030502;28;20465;-68
2023/03/15 03:53:08;;;;;;;0.40;0.40;;;-1.40;1.00;;;;;;5031544;28;20518;-68
2023/03/15 03:55:36;;;;;;;0.10;0.10;;;-1.40;1.00;;;;;;5029794;28;20442;-68
2023/03/15 03:58:03;;;;;;;0.50;0.50;;;-1.50;1.00;;;;;;5031767;28;20522;-68
2023/03/15 04:00:32;;;;;;;0.30;0.30;;;-1.50;1.00;;;;;;5030999;28;20434;-68
2023/03/15 04:03:00;;;;;;;0.30;0.20;;;-1.40;1.00;;;;;;5029379;28;20426;-68
2023/03/15 04:05:28;;;;;;;0.10;0.10;;;-1.40;1.00;;;;;;5030496;28;20477;-68
2023/03/15 04:07:55;;;;;;;0.10;0.10;;;-1.40;1.80;;;;;;5029353;28;20490;-68
2023/03/15 04:10:26;;;;;;;0.20;0.20;;;-1.30;7.50;;;;;;5031245;28;20477;-68
2023/03/15 04:12:56;;;;;;;0.30;0.30;;;-1.40;1.00;;;;;;5031408;28;20431;-68
2023/03/15 04:15:23;;;;;;;0.10;0.10;;;-1.40;1.00;;;;;;5029159;28;20518;-68
2023/03/15 04:17:54;;;;;;;0.10;0.10;;;-1.30;84.60;;;;;;5031125;28;20431;-68
2023/03/15 04:20:22;;;;;;;0.47;0.47;;;-1.30;40.40;;;;;;5023655;28;20490;-68
2023/03/15 04:22:52;;;;;;;0.80;0.15;;;-1.40;1.00;;;;;;5011721;28;20491;-68
2023/03/15 04:25:19;;;;;;;0.20;0.20;;;-1.40;1.00;;;;;;5024469;28;20463;-68
2023/03/15 04:27:57;;;;;;;5.40;0.40;;;-1.40;1.00;;;;;;5031052;28;20661;-68
2023/03/15 04:30:29;;;;;;;0.13;0.13;;;-1.40;1.00;;;;;;5028152;28;20529;-68
2023/03/15 04:33:02;;;;;;;0.30;0.30;;;-1.40;1.00;;;;;;5030353;28;20467;-68
2023/03/15 04:35:33;;;;;;;0.30;0.30;;;-1.30;7.20;;;;;;5030348;28;21136;-68
2023/03/15 04:38:00;;;;;;;0.20;0.20;;;-1.30;1.00;;;;;;5029301;28;20453;-68
2023/03/15 04:40:27;;;;;;;0.20;0.20;;;-1.40;1.00;;;;;;5029456;28;20423;-68
2023/03/15 04:42:54;;;;;;;0.28;0.28;;;-1.30;1.00;;;;;;5029276;28;21000;-68
2023/03/15 04:45:25;;;;;;;0.10;0.10;;;-1.30;1.00;;;;;;5030199;28;20435;-68
2023/03/15 04:47:59;;;;;;;0.10;0.10;;;-1.30;1.00;;;;;;5030844;28;20522;-68
2023/03/15 04:50:26;;;;;;;0.10;0.10;;;-1.30;1.00;;;;;;5030755;28;20435;-68
2023/03/15 04:52:54;;;;;;;0.20;0.20;;;-1.30;1.00;;;;;;5029168;28;20434;-68
2023/03/15 04:55:20;;;;;;;1.50;0.20;;;-1.30;1.00;;;;;;5029992;28;20419;-68
2023/03/15 04:57:47;;;;;;;0.10;0.10;;;-1.20;50.90;;;;;;5028752;28;20435;-68
2023/03/15 05:00:17;;;;;;;0.50;0.30;;;-1.10;13.10;;;;;;5030590;28;20511;-68
2023/03/15 05:02:46;;;;;;;0.50;0.45;;;-1.10;1.00;;;;;;5030558;28;20485;-68
2023/03/15 05:05:13;;;;;;;0.13;0.13;;;-1.00;1.00;;;;;;5030284;28;20422;-68
2023/03/15 05:07:42;;;;;;;0.30;0.30;;;-1.00;1.00;;;;;;5028040;28;20471;-68
2023/03/15 05:10:10;;;;;;;0.13;0.13;;;-0.90;1.00;;;;;;5030322;28;20433;-68
2023/03/15 05:12:37;;;;;;;0.13;0.13;;;-0.80;1.00;;;;;;5030626;28;20506;-68
2023/03/15 05:15:05;;;;;;;0.10;0.10;;;-0.80;1.00;;;;;;5029944;28;20423;-68
2023/03/15 05:17:32;;;;;;;0.10;0.10;;;-0.70;1.00;;;;;;5029676;28;20538;-68
2023/03/15 05:20:09;;;;;;;1.35;0.40;;;-0.70;1.00;;;;;;5028683;28;20493;-68
2023/03/15 05:22:36;;;;;;;0.10;0.10;;;-0.60;1.00;;;;;;5030239;28;20435;-68
2023/03/15 05:25:04;;;;;;;0.10;0.10;;;-0.50;1.00;;;;;;5029134;28;20947;-68
2023/03/15 05:27:37;;;;;;;0.20;0.20;;;-0.50;1.00;;;;;;5029934;28;20437;-68
2023/03/15 05:30:05;;;;;;;0.10;0.10;;;-0.40;1.00;;;;;;5030283;28;20508;-68
2023/03/15 05:32:38;;;;;;;0.30;0.30;;;-0.30;99.90;;;;;;5030173;28;20434;-68
2023/03/15 05:35:06;;;;;;;0.17;0.17;;;-0.30;99.90;;;;;;5029606;28;20441;-68
2023/03/15 05:37:34;;;;;;;0.35;0.35;;;-0.20;99.90;;;;;;5027589;28;20526;-68
2023/03/15 05:40:01;;;;;;;0.25;0.25;;;-0.10;80.10;;;;;;5027010;28;20927;-68
2023/03/15 05:42:28;;;;;;;4.60;0.47;;;-0.10;1.00;;;;;;5029733;28;20435;-68
2023/03/15 05:44:56;;;;;;;1.30;0.50;;;0.00;1.00;;;;;;5029521;28;20430;-68
2023/03/15 05:47:23;;;;;;;0.30;0.20;;;0.00;1.00;;;;;;5029780;28;20817;-68
2023/03/15 05:49:51;;;;;;;0.40;0.40;;;0.10;1.00;;;;;;5029682;28;20643;-68
2023/03/15 05:52:17;;;;;;;2.10;0.35;;;0.10;99.90;;;;;;5030008;28;20449;-68
2023/03/15 05:54:44;;;;;;;0.70;0.20;;;0.20;99.90;;;;;;5031320;28;20438;-68
2023/03/15 05:57:11;;;;;;;0.20;0.20;;;0.20;99.90;;;;;;5033433;28;20805;-68
2023/03/15 05:59:38;;;;;;;0.13;0.13;;;0.30;3.40;;;;;;5033801;28;20968;-68
2023/03/15 06:02:04;;;;;;;1.40;0.90;;;0.30;1.00;;;;;;5031226;28;20509;-68
2023/03/15 06:04:37;;;;;;;3.17;0.55;;;0.30;1.00;;;;;;5032898;28;20530;-68
2023/03/15 06:07:06;;;;;;;0.55;0.55;;;0.40;99.90;;;;;;5033480;28;20435;-68
2023/03/15 06:09:33;;;;;;;0.20;0.20;;;0.40;99.90;;;;;;5033486;28;20470;-68
2023/03/15 06:12:00;;;;;;;0.40;0.40;;;0.50;26.10;;;;;;5031044;28;20435;-68
2023/03/15 06:14:27;;;;;;;0.40;0.40;;;0.60;1.00;;;;;;5031904;28;20430;-68
2023/03/15 06:16:54;;;;;;;0.30;0.30;;;0.60;1.00;;;;;;5032066;28;20434;-68
2023/03/15 06:19:24;;;;;;;0.40;0.40;;;0.60;1.00;;;;;;5033735;28;20438;-67
2023/03/15 06:21:51;;;;;;;0.38;0.38;;;0.70;99.90;;;;;;5033451;28;20453;-67
2023/03/15 06:24:24;;;;;;;0.73;0.50;;;0.80;99.90;;;;;;5031862;28;21024;-67
2023/03/15 06:26:53;;;;;;;0.80;0.80;;;0.80;99.90;;;;;;5031983;28;20438;-67
2023/03/15 06:29:20;;;;;;;1.30;1.07;;;0.80;1.00;;;;;;5031618;28;20434;-67
2023/03/15 06:31:53;;;;;;;0.60;0.35;;;0.80;99.90;;;;;;5033088;28;20451;-67
2023/03/15 06:34:21;;;;;;;0.73;0.73;;;0.80;99.90;;;;;;5032005;28;20443;-67
2023/03/15 06:36:51;;;;;;;0.60;0.57;;;0.90;65.40;;;;;;5032172;28;20805;-67
2023/03/15 06:39:18;;;;;;;2.20;1.20;;;0.90;1.00;;;;;;5033212;28;20431;-67
2023/03/15 06:41:52;;;;;;;0.50;0.50;;;0.90;1.00;;;;;;5031543;28;20427;-67
2023/03/15 06:44:19;;;;;;;0.90;0.70;;;0.90;1.00;;;;;;5032578;28;20901;-67
2023/03/15 06:46:46;;;;;;;0.70;0.70;;;1.00;1.00;;;;;;5033044;28;20462;-67
2023/03/15 06:49:12;;;;;;;0.70;0.70;;;1.00;1.00;;;;;;5031128;28;20488;-67
2023/03/15 06:51:41;;;;;;;0.70;0.70;;;1.00;1.00;;;;;;5033113;28;20522;-67
2023/03/15 06:54:11;;;;;;;0.32;0.32;;;1.00;99.90;;;;;;5032552;28;20474;-67
2023/03/15 06:56:38;;;;;;;0.60;0.30;;;1.00;99.90;;;;;;5032723;28;20474;-67
2023/03/15 06:59:06;;;;;;;0.65;0.65;;;1.10;99.90;;;;;;5032671;28;20912;-67
2023/03/15 07:01:35;;;;;;;3.38;0.70;;;1.10;99.90;;;;;;5031132;28;20454;-67
2023/03/15 07:04:02;;;;;;;0.80;0.80;;;1.20;72.60;;;;;;5032046;28;20462;-67
2023/03/15 07:06:29;;;;;;;0.60;0.60;;;1.30;1.00;;;;;;5032049;28;20462;-67
2023/03/15 07:08:55;;;;;;;2.63;0.90;;;1.40;1.00;;;;;;5032479;28;20437;-67
2023/03/15 07:11:22;;;;;;;0.80;0.50;;;1.50;1.00;;;;;;5032727;28;20474;-67
2023/03/15 07:13:49;;;;;;;0.50;0.50;;;1.50;99.90;;;;;;5032051;28;20441;-68
2023/03/15 07:16:16;;;;;;;1.60;0.88;;;1.60;99.90;;;;;;5030990;28;20441;-67
2023/03/15 07:18:43;;;;;;;0.60;0.60;;;1.70;99.90;;;;;;5032190;28;20450;-67
2023/03/15 07:21:10;;;;;;;0.50;0.50;;;1.70;99.90;;;;;;5032191;28;20428;-67
2023/03/15 07:23:36;;;;;;;0.43;0.43;;;1.90;99.90;;;;;;5029917;28;20492;-67
2023/03/15 07:26:03;;;;;;;0.75;0.52;;;2.00;1.00;;;;;;5031762;28;20438;-68
2023/03/15 07:28:33;;;;;;;0.63;0.63;;;2.20;1.00;;;;;;5031349;28;20430;-67
2023/03/15 07:31:02;;;;;;;0.88;0.88;;;2.60;1.00;;;;;;5030712;28;20435;-67
2023/03/15 07:33:31;;;;;;;1.58;0.88;;;2.80;99.90;;;;;;5031913;28;20508;-67
2023/03/15 07:35:58;;;;;;;1.15;0.75;;;3.00;99.90;;;;;;5031453;28;20427;-68
2023/03/15 07:38:27;;;;;;;0.45;0.45;;;3.10;99.90;;;;;;5030605;28;20434;-67
2023/03/15 07:40:55;;;;;;;0.32;0.32;;;3.20;99.90;;;;;;5032107;28;20438;-68
2023/03/15 07:43:23;;;;;;;0.52;0.52;;;3.40;99.90;;;;;;5031791;28;20903;-68
2023/03/15 07:45:52;;;;;;;0.90;0.90;;;3.60;80.00;;;;;;5031264;28;20431;-68
2023/03/15 07:48:19;;;;;;;2.25;1.23;;;3.50;1.00;;;;;;5029910;28;20525;-67
2023/03/15 07:50:46;;;;;;;0.80;0.60;;;3.60;1.00;;;;;;5031511;28;20443;-68
2023/03/15 07:53:13;;;;;;;2.40;0.82;;;3.70;1.00;;;;;;5031966;28;20439;-68
2023/03/15 07:55:39;;;;;;;0.40;0.40;;;3.90;1.00;;;;;;5028156;28;20427;-68
2023/03/15 07:58:06;;;;;;;1.10;0.63;;;4.00;1.00;;;;;;5031276;28;20427;-68
2023/03/15 08:00:33;;;;;;;0.90;0.57;;;4.00;1.00;;;;;;5031427;28;20466;-67
2023/03/15 08:03:04;;;;;;;0.50;0.30;;;4.00;1.00;;;;;;5031469;28;20438;-68
2023/03/15 08:05:31;;;;;;;0.60;0.60;;;4.10;1.00;;;;;;5028445;28;20437;-67
2023/03/15 08:07:58;;;;;;;2.70;0.90;;;4.10;1.00;;;;;;5031065;28;21013;-67
2023/03/15 08:10:25;;;;;;;0.70;0.60;;;4.10;1.00;;;;;;5031369;28;20474;-68
2023/03/15 08:12:52;;;;;;;0.63;0.63;;;4.10;1.00;;;;;;5031340;28;21127;-65
2023/03/15 08:15:19;;;;;;;2.42;0.55;;;4.20;1.00;;;;;;5029986;28;20534;-65
2023/03/15 08:17:47;;;;;;;2.50;0.80;;;4.30;1.00;;;;;;5030489;28;20514;-66
2023/03/15 08:20:18;;;;;;;0.60;0.60;;;4.30;1.00;;;;;;5030264;28;20434;-67
2023/03/15 08:22:53;;;;;;;0.80;0.80;;;4.30;1.00;;;;;;5030172;28;20431;-67
2023/03/15 08:25:22;;;;;;;2.50;0.82;;;4.30;1.00;;;;;;5028734;28;20472;-67
2023/03/15 08:27:50;;;;;;;0.43;0.43;;;4.20;1.00;;;;;;5031161;28;20431;-67
2023/03/15 08:30:19;;;;;;;0.55;0.40;;;4.10;1.00;;;;;;5030936;28;20510;-67
2023/03/15 08:32:47;;;;;;;0.50;0.50;;;4.10;1.00;;;;;;5031114;28;20451;-67
2023/03/15 08:35:16;;;;;;;0.47;0.45;;;4.20;1.00;;;;;;5030741;28;20430;-67
2023/03/15 08:37:46;;;;;;;0.40;0.40;;;4.20;1.00;;;;;;5028821;28;20453;-67
2023/03/15 08:40:25;;;;;;;0.30;0.30;;;4.10;1.00;;;;;;5030815;28;20462;-65
2023/03/15 08:42:52;;;;;;;0.50;0.50;;;4.20;1.00;;;;;;5028558;28;20461;-67
2023/03/15 08:45:20;;;;;;;0.88;0.60;;;4.10;1.00;;;;;;5029990;28;20489;-68
2023/03/15 08:47:47;;;;;;;0.65;0.65;;;4.20;1.00;;;;;;5030798;28;20423;-68
2023/03/15 08:50:15;;;;;;;0.60;0.60;;;4.50;1.00;;;;;;5031031;28;20458;-67
2023/03/15 08:52:42;;;;;;;0.45;0.45;;;5.00;1.00;;;;;;5027749;28;20493;-67
2023/03/15 08:55:13;;;;;;;0.60;0.60;;;5.40;1.00;;;;;;5030040;28;20473;-67
2023/03/15 08:57:41;;;;;;;0.80;0.80;;;5.90;1.00;;;;;;5030656;28;20815;-67
2023/03/15 09:00:16;;;;;;;1.10;0.63;;;6.20;1.00;;;;;;5030529;28;20434;-67
2023/03/15 09:02:50;;;;;;;0.55;0.55;;;6.00;1.00;;;;;;5029284;28;20453;-67
2023/03/15 09:05:18;;;;;;;0.47;0.47;;;5.70;1.00;;;;;;5029307;28;20485;-67
2023/03/15 09:07:45;;;;;;;0.60;0.60;;;5.70;1.00;;;;;;5030040;28;20454;-67
2023/03/15 09:10:14;;;;;;;0.43;0.43;;;;;;;;;;5030330;28;20438;-67
2023/03/15 09:12:42;;;;;;;0.47;0.47;;;6.20;1.00;;;;;;5028585;28;20489;-67
2023/03/15 09:15:11;;;;;;;0.82;0.80;;;6.30;1.00;;;;;;5029808;28;20431;-67
2023/03/15 09:17:39;;;;;;;6.60;0.65;;;6.20;1.00;;;;;;5030132;28;20431;-67
2023/03/15 09:20:13;;;;;;;0.60;0.60;;;5.90;1.00;;;;;;5028751;28;20510;-67
2023/03/15 09:22:41;;;;;;;0.50;0.50;;;5.40;1.00;;;;;;5030109;28;20431;-67
2023/03/15 09:25:08;;;;;;;0.55;0.55;;;5.10;1.00;;;;;;5028181;28;20481;-67
2023/03/15 09:27:36;;;;;;;0.80;0.80;;;5.00;1.00;;;;;;5029622;28;20920;-67
2023/03/15 09:30:03;;;;;;;1.02;0.80;;;5.10;1.00;;;;;;5029020;28;20435;-67
2023/03/15 09:32:34;;;;;;;0.35;0.35;;;5.10;1.00;;;;;;5029865;28;20458;-67
2023/03/15 09:35:07;;;;;;;0.50;0.50;;;5.10;1.00;;;;;;5028202;28;20462;-67
2023/03/15 09:37:34;;;;;;;0.80;0.80;;;5.40;1.00;;;;;;5030136;28;20431;-67
2023/03/15 09:40:01;;;;;;;0.90;0.90;;;5.80;1.00;;;;;;5030011;28;20430;-67
2023/03/15 09:42:40;;;;;;;0.60;0.60;;;6.40;1.00;;;;;;5027088;28;20427;-67
2023/03/15 09:45:22;;;;;;;4.38;0.60;;;7.20;1.00;;;;;;5029498;28;20493;-67
2023/03/15 09:48:30;;;;;;;0.32;0.32;;;8.10;1.00;;;;;;5029422;28;20908;-67
2023/03/15 09:51:35;;;;;;;0.65;0.65;;;8.20;1.00;;;;;;5027395;28;20431;-67
2023/03/15 09:54:19;;;;;;;1.20;0.40;;;7.60;1.00;;;;;;5027139;28;20538;-67
2023/03/15 09:56:56;;;;;;;2.00;0.50;;;7.20;1.00;;;;;;5025931;28;20431;-67
2023/03/15 09:59:34;;;;;;;0.63;0.47;;;7.10;1.00;;;;;;5027312;28;20433;-67
2023/03/15 10:02:32;;;;;;;0.50;0.50;;;6.90;1.00;;;;;;5025662;28;20435;-67
2023/03/15 10:05:10;;;;;;;0.77;0.77;;;6.80;1.00;;;;;;5027070;28;20454;-67
2023/03/15 10:07:37;;;;;;;0.85;0.82;;;6.60;1.00;;;;;;5027235;28;20469;-67
2023/03/15 10:10:13;;;;;;;1.17;0.65;;;6.50;1.00;;;;;;5011195;28;20438;-67
2023/03/15 10:12:52;;;;;;;0.60;0.60;;;6.70;1.00;;;;;;5025958;28;20936;-67
2023/03/15 10:15:23;;;;;;;0.45;0.45;;;7.10;1.00;;;;;;5026049;28;20431;-67
2023/03/15 10:18:05;;;;;;;0.70;0.70;;;7.50;1.00;;;;;;5024831;28;20439;-67
2023/03/15 10:20:38;;;;;;;0.70;0.70;;;7.60;1.00;;;;;;5025870;28;20441;-67
2023/03/15 10:23:32;;;;;;;1.17;0.68;;;7.40;1.00;;;;;;5024827;28;20433;-67
2023/03/15 10:25:59;;;;;;;2.20;0.90;;;7.10;1.00;;;;;;5024640;28;20430;-67
2023/03/15 10:28:30;;;;;;;0.40;0.40;;;6.80;1.00;;;;;;5040624;28;20439;-66
2023/03/15 10:31:14;;;;;;;0.73;0.73;;;6.90;1.00;;;;;;5027872;28;20431;-67
2023/03/15 10:33:55;;;;;;;1.70;0.50;;;7.20;1.00;;;;;;5027349;28;20434;-67
2023/03/15 10:36:24;;;;;;;0.40;0.40;;;7.50;1.00;;;;;;5027316;28;20431;-66
2023/03/15 10:38:54;;;;;;;0.60;0.60;;;7.50;99.90;;;;;;5027165;28;20517;-66
2023/03/15 10:41:42;;;;;;;2.40;0.70;;;7.40;99.90;;;;;;5032535;28;20426;-67
2023/03/15 10:44:17;;;;;;;0.47;0.47;;;7.40;99.90;;;;;;5029949;28;20508;-66
2023/03/15 10:47:03;;;;;;;0.40;0.40;;;7.20;99.90;;;;;;5031481;28;20438;-66
2023/03/15 10:49:48;;;;;;;0.30;0.30;;;7.00;99.90;;;;;;5012720;28;20531;-66
2023/03/15 10:52:28;;;;;;;0.40;0.40;;;7.10;99.90;;;;;;5012901;28;20490;-66
2023/03/15 10:54:55;;;;;;;0.30;0.30;;;7.10;99.90;;;;;;5020131;28;21153;-66
2023/03/15 10:57:35;;;;;;;0.30;0.30;;;7.10;99.90;;;;;;5031218;28;20431;-66
2023/03/15 11:00:28;;;;;;;0.22;0.22;;;7.00;99.90;;;;;;5029577;28;20437;-67
2023/03/15 11:03:19;;;;;;;0.38;0.32;;;7.30;99.90;;;;;;5032224;28;21032;-66
2023/03/15 11:05:52;;;;;;;0.90;0.40;;;;;;;;;;5030227;28;20801;-66
2023/03/15 11:08:20;;;;;;;0.25;0.25;;;;;;;;;;5031815;28;20441;-67
2023/03/15 11:10:55;;;;;;;0.45;0.45;;;;;;;;;;5031734;28;20433;-66
2023/03/15 11:13:26;;;;;;;0.30;0.30;;;;;;;;;;5032387;28;20434;-65
2023/03/15 11:15:56;;;;;;;0.27;0.27;;;;;;;;;;5030399;28;20527;-65
2023/03/15 11:18:45;;;;;;;0.30;0.30;;;8.70;99.90;;;;;;5031900;28;20513;-67
2023/03/15 11:21:14;;;;;;;0.22;0.22;;;10.80;99.90;;;;;;5031651;28;20434;-66
2023/03/15 11:23:43;;;;;;;0.80;0.40;;;10.20;99.90;;;;;;5031977;28;20431;-67
2023/03/15 11:26:25;;;;;;;0.68;0.47;;;9.40;99.90;;;;;;5030984;28;20434;-66
2023/03/15 11:29:05;;;;;;;0.40;0.30;;;8.60;99.90;;;;;;5029570;28;20485;-66
2023/03/15 11:31:34;;;;;;;0.35;0.35;;;8.20;99.90;;;;;;5031565;28;20439;-66
2023/03/15 11:34:16;;;;;;;0.35;0.35;;;8.00;99.90;;;;;;5030015;28;20450;-67
2023/03/15 11:36:46;;;;;;;0.35;0.35;;;7.90;99.90;;;;;;5029725;28;20435;-67
2023/03/15 11:39:31;;;;;;;0.35;0.35;;;8.20;99.90;;;;;;5030695;28;20433;-67
2023/03/15 11:42:28;;;;;;;0.30;0.30;;;9.20;99.90;;;;;;5031202;28;20501;-66
2023/03/15 11:45:03;;;;;;;1.10;0.40;;;10.10;99.90;;;;;;5031046;28;20423;-67
2023/03/15 11:47:40;;;;;;;0.50;0.50;;;10.80;99.90;;;;;;5030114;28;20493;-65
2023/03/15 11:50:10;;;;;;;1.37;0.50;;;;;;;;;;5009926;28;20512;-65
2023/03/15 11:52:38;;;;;;;0.47;0.47;;;;;;;;;;5010478;28;20458;-65
2023/03/15 11:55:34;;;;;;;0.30;0.30;;;;;;;;;;5010833;28;20433;-65
2023/03/15 11:58:25;;;;;;;0.45;0.45;;;11.70;99.90;;;;;;5010822;28;20472;-64
2023/03/15 12:01:00;;;;;;;1.40;0.50;;;12.90;99.90;;;;;;5016883;28;20439;-66
2023/03/15 12:03:34;;;;;;;0.70;0.60;;;11.80;99.90;;;;;;5029189;28;20932;-66
2023/03/15 12:06:16;;;;;;;0.30;0.30;;;10.40;99.90;;;;;;5030682;28;20431;-66
2023/03/15 12:08:50;;;;;;;0.30;0.30;;;9.20;99.90;;;;;;5027745;28;20928;-66
2023/03/15 12:11:22;;;;;;;0.50;0.50;;;8.60;99.90;;;;;;5011100;28;20453;-66
2023/03/15 12:14:01;;;;;;;0.40;0.40;;;8.50;99.90;;;;;;5021916;28;20441;-66
2023/03/15 12:16:39;;;;;;;0.80;0.50;;;8.70;99.90;;;;;;5030641;28;21093;-66
2023/03/15 12:19:18;;;;;;;0.52;0.52;;;8.70;99.90;;;;;;5028676;28;20801;-66
2023/03/15 12:21:49;;;;;;;0.40;0.40;;;8.40;99.90;;;;;;5030737;28;20431;-66
2023/03/15 12:24:29;;;;;;;0.60;0.60;;;8.70;99.90;;;;;;5028386;28;20843;-66
2023/03/15 12:27:05;;;;;;;0.40;0.40;;;9.40;99.90;;;;;;5030491;28;20438;-66
2023/03/15 12:29:37;;;;;;;0.35;0.35;;;9.80;99.90;;;;;;5030554;28;20457;-66
2023/03/15 12:32:13;;;;;;;0.20;0.20;;;9.60;99.90;;;;;;5030129;28;20435;-66
2023/03/15 12:35:07;;;;;;;2.00;0.40;;;10.10;99.90;;;;;;5028204;28;20432;-66
2023/03/15 12:37:37;;;;;;;0.50;0.50;;;10.50;99.90;;;;;;5030246;28;20433;-66
2023/03/15 12:40:17;;;;;;;0.40;0.40;;;10.60;99.90;;;;;;5029172;28;20430;-66
2023/03/15 12:42:47;;;;;;;0.57;0.57;;;10.80;99.90;;;;;;5028117;28;20431;-67
2023/03/15 12:45:14;;;;;;;0.57;0.57;;;11.00;99.90;;;;;;5028801;28;20433;-66
2023/03/15 12:47:50;;;;;;;1.60;0.40;;;11.20;99.90;;;;;;5029007;28;20434;-66
2023/03/15 12:50:44;;;;;;;0.30;0.30;;;11.00;99.90;;;;;;5029339;28;20434;-66
2023/03/15 12:53:26;;;;;;;0.50;0.50;;;11.20;99.90;;;;;;5029980;28;20489;-66
2023/03/15 12:55:54;;;;;;;0.40;0.40;;;11.50;99.90;;;;;;5027945;28;20442;-66
2023/03/15 12:58:36;;;;;;;0.50;0.50;;;11.70;99.90;;;;;;5030265;28;20514;-67
2023/03/15 13:01:06;;;;;;;0.40;0.40;;;11.80;99.90;;;;;;5029942;28;20881;-66
2023/03/15 13:03:35;;;;;;;0.45;0.45;;;12.10;99.90;;;;;;5029717;28;20431;-66
2023/03/15 13:06:13;;;;;;;0.50;0.50;;;12.00;99.90;;;;;;5029751;28;20438;-66
2023/03/15 13:08:49;;;;;;;0.83;0.47;;;11.90;99.90;;;;;;5028579;28;20516;-67
2023/03/15 13:11:40;;;;;;;0.30;0.30;;;12.00;99.90;;;;;;5029743;28;20517;-66
2023/03/15 13:14:38;;;;;;;0.60;0.50;;;12.30;99.90;;;;;;5029530;28;20438;-67
2023/03/15 13:17:19;;;;;;;0.60;0.60;;;12.60;99.90;;;;;;5030066;28;20438;-67
2023/03/15 13:19:54;;;;;;;0.90;0.77;;;13.00;99.90;;;;;;5029614;28;20437;-67
2023/03/15 13:22:35;;;;;;;0.40;0.40;;;13.40;99.90;;;;;;5029013;28;20431;-67
2023/03/15 13:25:30;;;;;;;0.40;0.40;;;12.80;99.90;;;;;;5028212;28;20423;-66